Time;durP1;ratioP1;P1;durP2;ratioP2;P2;SDS_P1;SDS_P2;PMS_P1;PMS_P2;Temp;Humidity;BMP_temperature;BMP_pressure;BME280_temperature;BME280_humidity;BME280_pressure;Samples;Min_cycle;Max_cycle;Signal;HPM_P1;HPM_P2
2022/08/29 00:00:35;;;;;;;9.55;9.15;;;;;;;21.59;100.00;100487.88;5053717;28;20035;-65
2022/08/29 00:03:01;;;;;;;9.82;9.43;;;;;;;21.56;100.00;100477.59;5063817;28;20033;-64
2022/08/29 00:05:33;;;;;;;9.40;9.00;;;;;;;21.59;100.00;100484.38;5054094;28;20036;-67
2022/08/29 00:08:00;;;;;;;9.50;9.10;;;;;;;21.60;100.00;100478.75;5058640;28;20024;-65
2022/08/29 00:10:28;;;;;;;9.68;9.27;;;;;;;21.62;100.00;100479.31;5061995;28;20028;-66
2022/08/29 00:12:53;;;;;;;9.40;9.00;;;;;;;21.72;100.00;100481.31;5066139;28;20016;-65
2022/08/29 00:15:19;;;;;;;9.50;9.10;;;;;;;21.73;100.00;100481.06;5053110;28;20033;-65
2022/08/29 00:17:45;;;;;;;9.50;9.10;;;;;;;21.64;100.00;100482.56;5052568;28;20040;-65
2022/08/29 00:20:19;;;;;;;9.48;9.07;;;;;;;21.57;100.00;100490.03;5053689;28;20025;-65
2022/08/29 00:22:45;;;;;;;9.40;9.00;;;;;;;21.41;100.00;100483.59;5063889;28;20785;-64
2022/08/29 00:25:13;;;;;;;9.27;8.88;;;;;;;21.40;100.00;100486.53;5056281;28;20466;-65
2022/08/29 00:27:38;;;;;;;9.50;9.10;;;;;;;21.50;100.00;100492.06;5052629;28;20025;-65
2022/08/29 00:30:06;;;;;;;9.63;9.23;;;;;;;21.52;100.00;100481.88;5053399;28;20029;-65
2022/08/29 00:32:33;;;;;;;9.43;9.02;;;;;;;21.59;100.00;100485.19;5054774;28;20020;-66
2022/08/29 00:35:05;;;;;;;9.70;9.30;;;;;;;21.33;100.00;100472.41;5053364;28;20432;-66
2022/08/29 00:37:31;;;;;;;9.68;9.27;;;;;;;21.30;100.00;100481.81;5050756;28;20067;-65
2022/08/29 00:39:56;;;;;;;9.50;9.10;;;;;;;21.34;100.00;100485.63;5050922;28;20057;-66
2022/08/29 00:42:22;;;;;;;9.40;9.00;;;;;;;21.23;100.00;100487.34;5053447;28;20463;-65
2022/08/29 00:44:48;;;;;;;9.40;9.00;;;;;;;21.16;100.00;100497.47;5056744;28;20487;-65
2022/08/29 00:47:21;;;;;;;9.25;8.85;;;;;;;21.27;100.00;100498.44;5062696;28;20062;-67
2022/08/29 00:49:51;;;;;;;9.40;9.00;;;;;;;21.25;100.00;100495.19;5055446;28;20108;-67
2022/08/29 00:52:25;;;;;;;9.40;9.00;;;;;;;21.22;100.00;100487.56;5073120;28;20025;-66
2022/08/29 00:54:54;;;;;;;9.43;9.02;;;;;;;21.24;100.00;100491.66;5061860;28;20031;-65
2022/08/29 00:57:21;;;;;;;9.13;8.73;;;;;;;21.00;100.00;100486.66;5053169;28;20074;-66
2022/08/29 00:59:48;;;;;;;9.50;9.10;;;;;;;21.01;100.00;100488.31;5052792;28;20025;-66
2022/08/29 01:02:13;;;;;;;9.38;8.98;;;;;;;21.12;100.00;100487.41;5052528;28;20029;-65
2022/08/29 01:04:39;;;;;;;9.35;8.95;;;;;;;20.97;100.00;100488.78;5065066;28;20033;-65
2022/08/29 01:07:07;;;;;;;9.40;9.00;;;;;;;20.82;100.00;100493.13;5052671;28;20032;-65
2022/08/29 01:09:35;;;;;;;9.25;8.85;;;;;;;20.80;100.00;100487.16;5052558;28;20047;-65
2022/08/29 01:12:17;;;;;;;9.50;9.10;;;;;;;20.77;100.00;100493.00;5060856;28;20035;-66
2022/08/29 01:14:50;;;;;;;9.40;9.00;;;;;;;20.80;100.00;100495.25;5055829;28;20082;-66
2022/08/29 01:17:23;;;;;;;9.50;9.10;;;;;;;20.72;100.00;100488.38;5062032;28;20059;-66
2022/08/29 01:19:58;;;;;;;9.17;8.77;;;;;;;20.72;100.00;100492.94;5045555;28;20416;-65
2022/08/29 01:22:40;;;;;;;9.35;8.95;;;;;;;20.66;100.00;100490.16;5048003;28;20121;-65
2022/08/29 01:25:12;;;;;;;9.57;9.18;;;;;;;20.67;100.00;100494.47;5052852;28;20100;-66
2022/08/29 01:27:40;;;;;;;9.40;9.00;;;;;;;20.65;100.00;100490.41;5072615;28;20029;-65
2022/08/29 01:30:07;;;;;;;9.40;9.00;;;;;;;20.59;100.00;100486.78;5072297;28;20024;-66
2022/08/29 01:32:33;;;;;;;9.40;9.00;;;;;;;20.66;100.00;100495.53;5062649;28;20107;-65
2022/08/29 01:34:59;;;;;;;8.98;8.57;;;;;;;20.70;100.00;100491.28;5050984;28;20048;-65
2022/08/29 01:37:30;;;;;;;9.25;8.85;;;;;;;20.58;100.00;100492.41;5052285;28;20142;-66
2022/08/29 01:39:55;;;;;;;9.30;8.90;;;;;;;20.52;100.00;100486.09;5051983;28;20037;-66
2022/08/29 01:42:23;;;;;;;9.45;9.05;;;;;;;20.51;100.00;100489.88;5052076;28;20033;-65
2022/08/29 01:44:55;;;;;;;9.50;9.10;;;;;;;20.62;100.00;100488.97;5064175;28;20013;-65
2022/08/29 01:47:22;;;;;;;9.50;9.10;;;;;;;20.60;100.00;100495.69;5051970;28;20534;-65
2022/08/29 01:49:49;;;;;;;9.27;8.88;;;;;;;20.53;100.00;100495.00;5057632;28;20046;-65
2022/08/29 01:52:14;;;;;;;9.23;8.82;;;;;;;20.47;100.00;100490.56;5069890;28;20020;-66
2022/08/29 01:54:42;;;;;;;9.40;9.00;;;;;;;20.45;100.00;100487.31;5062380;28;20456;-65
2022/08/29 01:57:09;;;;;;;9.70;9.30;;;;;;;20.44;100.00;100489.19;5055265;28;20040;-65
2022/08/29 01:59:36;;;;;;;9.00;8.60;;;;;;;20.45;100.00;100485.44;5071854;28;20016;-65
2022/08/29 02:02:01;;;;;;;9.57;9.18;;;;;;;20.50;100.00;100490.13;5068879;28;20021;-65
2022/08/29 02:04:27;;;;;;;9.40;9.00;;;;;;;20.39;100.00;100480.97;5062446;28;20036;-65
2022/08/29 02:06:54;;;;;;;9.50;9.10;;;;;;;20.41;100.00;100485.06;5071903;28;20060;-65
2022/08/29 02:09:20;;;;;;;9.23;8.82;;;;;;;20.41;100.00;100485.06;5053366;28;20114;-65
2022/08/29 02:11:47;;;;;;;9.60;9.20;;;;;;;20.33;100.00;100487.31;5062903;28;20488;-65
2022/08/29 02:14:13;;;;;;;9.43;9.02;;;;;;;20.32;100.00;100491.88;5051062;28;20028;-65
2022/08/29 02:16:38;;;;;;;9.50;9.10;;;;;;;20.18;100.00;100493.22;5051434;28;20492;-65
2022/08/29 02:19:04;;;;;;;9.20;8.80;;;;;;;20.18;100.00;100490.53;5050311;28;20036;-64
2022/08/29 02:21:30;;;;;;;9.68;9.27;;;;;;;20.15;100.00;100494.53;5061635;28;20479;-65
2022/08/29 02:23:58;;;;;;;9.85;9.45;;;;;;;20.17;100.00;100493.47;5054314;28;20403;-65
2022/08/29 02:26:23;;;;;;;9.30;8.90;;;;;;;20.05;100.00;100491.63;5050710;28;20400;-66
2022/08/29 02:28:50;;;;;;;9.50;9.10;;;;;;;20.16;100.00;100489.97;5065250;28;20037;-66
2022/08/29 02:31:17;;;;;;;9.30;8.90;;;;;;;20.14;100.00;100492.91;5050600;28;20037;-64
2022/08/29 02:33:42;;;;;;;9.48;9.07;;;;;;;20.12;100.00;100500.41;5060512;28;20024;-65
2022/08/29 02:36:08;;;;;;;9.73;9.32;;;;;;;20.15;100.00;100488.31;5056656;28;20435;-65
2022/08/29 02:38:34;;;;;;;9.50;9.10;;;;;;;20.10;100.00;100501.69;5063672;28;20021;-65
2022/08/29 02:41:00;;;;;;;9.70;9.30;;;;;;;20.09;100.00;100500.84;5057587;28;20025;-65
2022/08/29 02:43:26;;;;;;;9.40;9.00;;;;;;;19.96;100.00;100498.41;5075333;28;20062;-65
2022/08/29 02:45:52;;;;;;;9.25;8.85;;;;;;;19.97;100.00;100501.94;5061798;28;20057;-65
2022/08/29 02:48:18;;;;;;;9.45;9.05;;;;;;;19.97;100.00;100497.38;5060445;28;20049;-65
2022/08/29 02:50:49;;;;;;;9.43;9.02;;;;;;;19.86;100.00;100500.91;5062811;28;20531;-64
2022/08/29 02:53:17;;;;;;;9.45;9.05;;;;;;;19.99;100.00;100502.53;5061925;28;20491;-66
2022/08/29 02:55:44;;;;;;;9.48;9.07;;;;;;;19.93;100.00;100500.78;5062411;28;20028;-65
2022/08/29 02:58:10;;;;;;;9.80;9.40;;;;;;;19.85;100.00;100505.47;5074832;28;20616;-65
2022/08/29 03:00:35;;;;;;;9.75;9.35;;;;;;;19.93;100.00;100501.59;5075244;28;20025;-65
2022/08/29 03:03:03;;;;;;;9.90;9.50;;;;;;;19.82;100.00;100505.13;5066209;28;20017;-65
2022/08/29 03:05:33;;;;;;;9.70;9.30;;;;;;;19.82;100.00;100513.19;5058766;28;20021;-65
2022/08/29 03:08:01;;;;;;;9.50;9.10;;;;;;;19.83;100.00;100510.28;5058450;28;20583;-65
2022/08/29 03:10:27;;;;;;;9.70;9.30;;;;;;;19.87;100.00;100510.63;5065156;28;20472;-66
2022/08/29 03:12:52;;;;;;;9.60;9.20;;;;;;;19.86;100.00;100517.06;5067600;28;20026;-66
2022/08/29 03:15:19;;;;;;;9.60;9.20;;;;;;;19.91;100.00;100519.88;5071427;28;20027;-65
2022/08/29 03:17:46;;;;;;;9.50;9.10;;;;;;;19.89;100.00;100516.56;5071205;28;20097;-65
2022/08/29 03:20:14;;;;;;;9.50;9.10;;;;;;;19.77;100.00;100521.19;5054631;28;20096;-65
2022/08/29 03:22:40;;;;;;;9.40;9.00;;;;;;;19.78;100.00;100526.31;5058344;28;20056;-65
2022/08/29 03:25:07;;;;;;;9.75;9.35;;;;;;;19.84;100.00;100532.66;5066194;28;20064;-65
2022/08/29 03:27:33;;;;;;;9.45;9.05;;;;;;;19.81;100.00;100536.59;5054899;28;20079;-65
2022/08/29 03:29:59;;;;;;;9.30;8.90;;;;;;;19.73;100.00;100534.28;5054607;28;20159;-65
2022/08/29 03:32:25;;;;;;;9.50;9.10;;;;;;;19.81;100.00;100547.38;5054565;28;20025;-64
2022/08/29 03:34:52;;;;;;;10.20;9.70;;;;;;;19.87;100.00;100548.31;5055151;28;20036;-65
2022/08/29 03:37:17;;;;;;;9.32;8.93;;;;;;;20.00;100.00;100553.47;5051677;28;20017;-65
2022/08/29 03:39:43;;;;;;;9.85;9.45;;;;;;;20.07;100.00;100547.94;5064299;28;20068;-64
2022/08/29 03:42:10;;;;;;;9.50;9.10;;;;;;;20.23;100.00;100554.47;5064850;28;20043;-65
2022/08/29 03:44:37;;;;;;;9.40;9.00;;;;;;;20.36;100.00;100559.59;5071066;28;20446;-65
2022/08/29 03:47:04;;;;;;;9.35;8.95;;;;;;;20.53;100.00;100567.78;5073907;28;20032;-64
2022/08/29 03:49:29;;;;;;;9.70;9.30;;;;;;;20.74;100.00;100567.13;5057537;28;20060;-64
2022/08/29 03:51:55;;;;;;;9.70;9.30;;;;;;;20.97;100.00;100567.00;5066574;28;20434;-64
2022/08/29 03:54:21;;;;;;;9.27;8.88;;;;;;;21.17;100.00;100569.25;5056542;28;20021;-65
2022/08/29 03:56:47;;;;;;;9.70;9.30;;;;;;;21.49;100.00;100574.13;5051635;28;20380;-65
2022/08/29 03:59:14;;;;;;;9.52;9.13;;;;;;;21.58;100.00;100574.53;5053981;28;20021;-65
2022/08/29 04:01:39;;;;;;;9.70;9.30;;;;;;;22.12;100.00;100569.41;5058118;28;20111;-65
2022/08/29 04:04:05;;;;;;;9.90;9.50;;;;;;;22.50;100.00;100569.34;5054802;28;20049;-65
2022/08/29 04:06:32;;;;;;;9.48;9.07;;;;;;;22.92;100.00;100576.06;5067854;28;20475;-65
2022/08/29 04:08:59;;;;;;;9.63;9.23;;;;;;;23.60;100.00;100582.63;5054023;28;20028;-65
2022/08/29 04:11:25;;;;;;;9.60;9.20;;;;;;;24.79;100.00;100578.38;5032835;28;20025;-65
2022/08/29 04:13:52;;;;;;;9.27;8.88;;;;;;;25.75;100.00;100585.81;5053588;28;20075;-65
2022/08/29 04:16:23;;;;;;;9.48;9.07;;;;;;;26.24;100.00;100579.72;5053987;28;20059;-65
2022/08/29 04:18:48;;;;;;;9.55;9.15;;;;;;;26.93;100.00;100586.22;5053470;28;20056;-65
2022/08/29 04:21:15;;;;;;;9.45;9.05;;;;;;;27.70;100.00;100583.78;5053378;28;20567;-65
2022/08/29 04:23:41;;;;;;;9.63;9.23;;;;;;;28.23;100.00;100591.94;5057786;28;20025;-66
2022/08/29 04:26:18;;;;;;;9.55;9.15;;;;;;;28.60;100.00;100597.50;5071619;28;20024;-64
2022/08/29 04:28:44;;;;;;;9.63;9.23;;;;;;;29.22;100.00;100589.25;5035216;28;20033;-64
2022/08/29 04:31:19;;;;;;;9.63;9.23;;;;;;;29.35;99.39;100593.94;5035343;28;20079;-63
2022/08/29 04:33:48;;;;;;;9.40;9.00;;;;;;;30.15;95.72;100605.72;5053302;28;20021;-63
2022/08/29 04:36:15;;;;;;;9.75;9.35;;;;;;;30.71;92.61;100608.13;5073354;28;20028;-63
2022/08/29 04:38:41;;;;;;;9.63;9.23;;;;;;;31.30;89.29;100606.25;5057684;28;20435;-63
2022/08/29 04:41:09;;;;;;;9.70;9.30;;;;;;;31.87;85.50;100606.44;5053306;28;20025;-63
2022/08/29 04:43:35;;;;;;;10.00;9.60;;;;;;;31.27;86.49;100612.34;5053185;28;20028;-63
2022/08/29 04:46:00;;;;;;;9.77;9.38;;;;;;;32.18;83.91;100616.59;5052544;28;20538;-63
2022/08/29 04:48:27;;;;;;;9.85;9.45;;;;;;;32.92;79.71;100610.34;5062916;28;20072;-63
2022/08/29 04:50:55;;;;;;;9.77;9.38;;;;;;;33.67;75.04;100610.94;5061487;28;20025;-63
2022/08/29 04:53:21;;;;;;;9.65;9.25;;;;;;;33.68;74.39;100610.59;5066364;28;20028;-63
2022/08/29 04:55:58;;;;;;;9.60;9.20;;;;;;;34.57;68.38;100614.28;5059723;28;20082;-66
2022/08/29 04:58:24;;;;;;;9.70;9.30;;;;;;;34.80;68.32;100617.53;5043220;28;20033;-64
2022/08/29 05:00:50;;;;;;;9.50;9.10;;;;;;;35.35;63.50;100619.22;5052247;28;20033;-64
2022/08/29 05:03:16;;;;;;;9.80;9.40;;;;;;;35.22;64.46;100619.50;5057340;28;20115;-64
2022/08/29 05:05:41;;;;;;;9.73;9.32;;;;;;;35.70;61.13;100619.72;5064010;28;20028;-64
2022/08/29 05:08:07;;;;;;;9.82;9.43;;;;;;;36.45;58.33;100624.97;5056309;28;20078;-65
2022/08/29 05:10:32;;;;;;;9.80;9.40;;;;;;;36.25;57.90;100620.34;5058862;28;20016;-65
2022/08/29 05:12:58;;;;;;;9.80;9.40;;;;;;;36.93;55.24;100633.53;5061467;28;20049;-64
2022/08/29 05:15:23;;;;;;;9.60;9.20;;;;;;;36.86;54.96;100631.38;5052018;28;20037;-65
2022/08/29 05:17:50;;;;;;;9.60;9.20;;;;;;;37.29;52.53;100635.38;5052518;28;20074;-65
2022/08/29 05:20:16;;;;;;;9.90;9.50;;;;;;;37.60;51.65;100638.25;5055565;28;20420;-64
2022/08/29 05:22:42;;;;;;;9.85;9.45;;;;;;;38.13;50.20;100633.31;5061114;28;20043;-65
2022/08/29 05:25:10;;;;;;;9.90;9.50;;;;;;;37.43;49.06;100632.22;5070892;28;20020;-65
2022/08/29 05:27:35;;;;;;;9.60;9.20;;;;;;;37.69;49.76;100637.28;5058051;28;20484;-65
2022/08/29 05:30:03;;;;;;;9.88;9.48;;;;;;;37.69;49.32;100640.06;5065797;28;20025;-65
2022/08/29 05:32:28;;;;;;;9.90;9.50;;;;;;;38.05;48.41;100639.03;5052239;28;20396;-65
2022/08/29 05:34:54;;;;;;;9.80;9.40;;;;;;;38.36;46.42;100641.81;5051938;28;20021;-64
2022/08/29 05:37:20;;;;;;;9.73;9.32;;;;;;;38.78;45.17;100649.50;5034117;28;20056;-65
2022/08/29 05:39:47;;;;;;;9.63;9.23;;;;;;;38.89;46.10;100649.75;5064496;28;20038;-67
2022/08/29 05:42:15;;;;;;;9.73;9.32;;;;;;;39.02;44.14;100656.78;5061056;28;20119;-67
2022/08/29 05:44:41;;;;;;;9.75;9.35;;;;;;;39.04;44.00;100650.84;5072274;28;20103;-66
2022/08/29 05:47:10;;;;;;;9.77;9.38;;;;;;;38.72;44.93;100652.94;5072424;28;20240;-66
2022/08/29 05:49:38;;;;;;;9.85;9.45;;;;;;;39.01;44.63;100657.13;5071672;28;20492;-67
2022/08/29 05:52:05;;;;;;;10.00;9.60;;;;;;;39.12;44.46;100645.06;5058652;28;20028;-66
2022/08/29 05:54:32;;;;;;;9.75;9.35;;;;;;;39.81;43.54;100647.22;5066830;28;20029;-65
2022/08/29 05:56:58;;;;;;;9.73;9.32;;;;;;;39.32;44.22;100648.69;5062355;28;20025;-67
2022/08/29 05:59:23;;;;;;;9.65;9.25;;;;;;;39.82;43.35;100652.44;5053509;28;20361;-66
2022/08/29 06:01:49;;;;;;;9.52;9.13;;;;;;;39.38;43.92;100654.75;5058556;28;20032;-66
2022/08/29 06:04:15;;;;;;;9.75;9.35;;;;;;;39.71;43.71;100649.44;5056823;28;20048;-66
2022/08/29 06:06:40;;;;;;;9.68;9.27;;;;;;;38.96;44.61;100647.13;5052286;28;20107;-66
2022/08/29 06:09:07;;;;;;;9.82;9.43;;;;;;;38.91;45.29;100650.19;5038429;28;20024;-66
2022/08/29 06:11:33;;;;;;;9.73;9.32;;;;;;;40.14;42.57;100660.53;5050967;28;20112;-66
2022/08/29 06:14:00;;;;;;;9.75;9.35;;;;;;;40.06;42.55;100651.25;5060123;28;20459;-66
2022/08/29 06:16:27;;;;;;;9.45;9.05;;;;;;;39.81;42.45;100659.13;5059837;28;20082;-66
2022/08/29 06:18:54;;;;;;;9.80;9.40;;;;;;;39.67;43.47;100656.91;5059929;28;20535;-67
2022/08/29 06:21:20;;;;;;;9.65;9.25;;;;;;;38.91;44.55;100658.50;5063473;28;20036;-66
2022/08/29 06:23:46;;;;;;;9.80;9.40;;;;;;;39.99;42.69;100665.81;5051723;28;20090;-67
2022/08/29 06:26:13;;;;;;;9.75;9.35;;;;;;;40.55;40.83;100658.81;5038848;28;20029;-68
2022/08/29 06:28:42;;;;;;;9.88;9.48;;;;;;;40.54;40.99;100658.00;5060801;28;20020;-67
2022/08/29 06:31:11;;;;;;;9.85;9.45;;;;;;;39.89;42.76;100654.53;5043879;28;20029;-67
2022/08/29 06:33:37;;;;;;;9.90;9.50;;;;;;;39.61;42.53;100655.63;5051296;28;20380;-67
2022/08/29 06:36:05;;;;;;;9.70;9.30;;;;;;;40.38;41.57;100665.66;5029027;28;20064;-67
2022/08/29 06:38:31;;;;;;;9.68;9.27;;;;;;;40.59;40.70;100660.44;5063157;28;20037;-67
2022/08/29 06:41:05;;;;;;;9.82;9.43;;;;;;;40.66;41.02;100664.53;5059688;28;20032;-67
2022/08/29 06:43:30;;;;;;;9.95;9.55;;;;;;;41.27;39.37;100666.91;5050459;28;20439;-65
2022/08/29 06:45:56;;;;;;;9.82;9.43;;;;;;;40.39;40.67;100653.38;5046502;28;20164;-67
2022/08/29 06:48:21;;;;;;;9.90;9.50;;;;;;;40.32;40.77;100656.03;5049867;28;20517;-67
2022/08/29 06:50:47;;;;;;;9.75;9.35;;;;;;;40.87;39.65;100660.06;5047192;28;20385;-65
2022/08/29 06:53:13;;;;;;;9.85;9.45;;;;;;;41.23;39.08;100668.88;5052320;28;20159;-65
2022/08/29 06:55:39;;;;;;;9.65;9.25;;;;;;;41.36;38.37;100664.69;5047731;28;20028;-65
2022/08/29 06:58:05;;;;;;;10.00;9.60;;;;;;;40.73;39.54;100668.19;5050017;28;20037;-66
2022/08/29 07:00:31;;;;;;;9.80;9.40;;;;;;;40.15;40.37;100657.38;5048474;28;20560;-65
2022/08/29 07:02:57;;;;;;;10.30;9.90;;;;;;;40.66;40.08;100662.53;5049316;28;20120;-66
2022/08/29 07:05:23;;;;;;;9.90;9.50;;;;;;;40.18;39.28;100664.16;5050548;28;20024;-66
2022/08/29 07:07:50;;;;;;;9.85;9.45;;;;;;;40.08;40.14;100662.81;5050180;28;20443;-66
2022/08/29 07:10:17;;;;;;;9.65;9.25;;;;;;;40.96;39.26;100656.22;5050694;28;20024;-65
2022/08/29 07:12:42;;;;;;;9.75;9.35;;;;;;;39.31;42.07;100660.16;5050734;28;20067;-66
2022/08/29 07:15:08;;;;;;;9.80;9.40;;;;;;;39.83;41.81;100656.81;5046195;28;20171;-66
2022/08/29 07:17:34;;;;;;;9.90;9.50;;;;;;;40.21;40.93;100661.44;5048551;28;20025;-66
2022/08/29 07:20:00;;;;;;;9.93;9.52;;;;;;;39.87;42.16;100662.41;5046082;28;20029;-65
2022/08/29 07:22:25;;;;;;;9.85;9.45;;;;;;;39.72;42.61;100651.03;5041963;28;20033;-65
2022/08/29 07:24:53;;;;;;;10.13;9.73;;;;;;;40.91;39.82;100654.53;5049820;28;20510;-65
2022/08/29 07:27:19;;;;;;;9.90;9.50;;;;;;;41.44;38.47;100660.00;5054282;28;20025;-66
2022/08/29 07:29:44;;;;;;;9.98;9.57;;;;;;;39.98;41.36;100660.63;5053532;28;20509;-65
2022/08/29 07:32:10;;;;;;;10.02;9.63;;;;;;;40.37;40.52;100657.72;5053992;28;20075;-67
2022/08/29 07:34:35;;;;;;;9.57;9.18;;;;;;;41.08;38.32;100650.41;5053631;28;20029;-67
2022/08/29 07:37:03;;;;;;;10.13;9.73;;;;;;;41.72;37.49;100665.09;5056173;28;20021;-67
2022/08/29 07:39:29;;;;;;;10.48;9.98;;;;;;;42.80;36.20;100656.38;5056852;28;20428;-65
2022/08/29 07:41:54;;;;;;;10.18;9.77;;;;;;;42.13;35.37;100654.69;5043558;28;20040;-65
2022/08/29 07:44:20;;;;;;;10.10;9.70;;;;;;;41.86;36.44;100651.28;5040007;28;20036;-67
2022/08/29 07:46:45;;;;;;;10.10;9.70;;;;;;;42.37;36.40;100663.66;5053785;28;20025;-67
2022/08/29 07:49:11;;;;;;;10.20;9.80;;;;;;;43.09;35.20;100654.53;5075294;28;20021;-66
2022/08/29 07:51:38;;;;;;;10.20;9.80;;;;;;;42.27;36.02;100656.03;5076886;28;20043;-66
2022/08/29 07:54:05;;;;;;;10.48;9.98;;;;;;;43.12;35.32;100652.94;5073197;28;20078;-66
2022/08/29 07:56:39;;;;;;;9.80;9.40;;;;;;;42.52;35.79;100656.16;5081762;28;20124;-66
2022/08/29 07:59:05;;;;;;;10.10;9.70;;;;;;;42.24;35.74;100657.59;5080757;28;20020;-66
2022/08/29 08:01:32;;;;;;;9.70;9.30;;;;;;;41.99;35.95;100651.78;5075819;28;20099;-66
2022/08/29 08:03:57;;;;;;;10.20;9.80;;;;;;;41.87;36.73;100643.75;5075877;28;20480;-66
2022/08/29 08:06:24;;;;;;;10.05;9.65;;;;;;;41.39;37.31;100651.97;5072344;28;20035;-67
2022/08/29 08:08:51;;;;;;;9.75;9.35;;;;;;;41.94;36.69;100650.19;5075625;28;20107;-69
2022/08/29 08:11:18;;;;;;;9.95;9.55;;;;;;;41.89;36.41;100642.16;5073385;28;20061;-67
2022/08/29 08:13:44;;;;;;;9.65;9.25;;;;;;;41.88;36.96;100650.91;5080573;28;20024;-68
2022/08/29 08:16:14;;;;;;;10.05;9.65;;;;;;;41.77;36.57;100642.44;5078419;28;20747;-68
2022/08/29 08:18:41;;;;;;;9.70;9.30;;;;;;;41.70;37.12;100650.69;5073721;28;20051;-66
2022/08/29 08:21:07;;;;;;;9.68;9.27;;;;;;;40.96;37.57;100634.75;5085697;28;20108;-66
2022/08/29 08:23:32;;;;;;;9.80;9.40;;;;;;;39.71;40.47;100638.34;5063820;28;20107;-67
2022/08/29 08:25:58;;;;;;;9.68;9.27;;;;;;;38.54;44.44;100633.09;5074142;28;20058;-66
2022/08/29 08:28:24;;;;;;;10.07;9.68;;;;;;;40.54;40.80;100649.66;5074528;28;20448;-66
2022/08/29 08:30:49;;;;;;;9.85;9.45;;;;;;;39.99;40.55;100645.56;5078081;28;20033;-68
2022/08/29 08:33:15;;;;;;;9.75;9.35;;;;;;;40.20;39.83;100642.38;5085468;28;20118;-68
2022/08/29 08:35:40;;;;;;;9.90;9.50;;;;;;;40.03;39.21;100638.09;5091438;28;20372;-68
2022/08/29 08:38:07;;;;;;;9.63;9.23;;;;;;;41.05;37.90;100638.03;5066976;28;20030;-67
2022/08/29 08:40:52;;;;;;;10.00;9.60;;;;;;;40.43;38.12;100647.88;5080421;28;20438;-68
2022/08/29 08:43:23;;;;;;;9.60;9.20;;;;;;;38.98;41.49;100640.03;5068717;28;20491;-67
2022/08/29 08:45:49;;;;;;;10.00;9.60;;;;;;;39.57;40.53;100649.16;5060992;28;20444;-68
2022/08/29 08:48:32;;;;;;;9.85;9.45;;;;;;;39.83;38.99;100642.91;5059315;28;20071;-69
2022/08/29 08:51:16;;;;;;;9.70;9.30;;;;;;;39.99;38.54;100642.78;5061002;28;20030;-69
2022/08/29 08:53:48;;;;;;;9.80;9.40;;;;;;;39.84;38.80;100640.94;5074979;28;20020;-69
2022/08/29 08:56:35;;;;;;;9.38;8.98;;;;;;;39.44;38.81;100634.66;5082648;28;20034;-68
2022/08/29 08:59:04;;;;;;;9.65;9.25;;;;;;;39.99;38.26;100640.00;5065932;28;20107;-67
2022/08/29 09:01:44;;;;;;;9.43;9.02;;;;;;;39.96;38.34;100637.97;5071917;28;20514;-66
2022/08/29 09:04:21;;;;;;;9.70;9.30;;;;;;;39.08;38.57;100638.66;5064205;28;20113;-67
2022/08/29 09:06:56;;;;;;;9.50;9.10;;;;;;;39.02;38.40;100633.78;5070111;28;20028;-67
2022/08/29 09:09:37;;;;;;;9.57;9.18;;;;;;;38.43;40.09;100630.88;5071713;28;20111;-68
2022/08/29 09:12:27;;;;;;;9.70;9.30;;;;;;;37.38;40.86;100624.19;5070237;28;20500;-67
2022/08/29 09:15:00;;;;;;;9.60;9.20;;;;;;;38.23;39.92;100622.84;5066616;28;20028;-68
2022/08/29 09:17:51;;;;;;;9.50;9.10;;;;;;;37.79;41.52;100631.25;5067651;28;20483;-67
2022/08/29 09:20:23;;;;;;;9.57;9.18;;;;;;;37.77;41.14;100630.78;5068911;28;20480;-65
2022/08/29 09:23:17;;;;;;;9.77;9.38;;;;;;;38.11;40.60;100624.53;5082311;28;20024;-65
2022/08/29 09:25:43;;;;;;;9.82;9.43;;;;;;;38.16;40.00;100624.28;5077860;28;20024;-67
2022/08/29 09:28:08;;;;;;;9.43;9.02;;;;;;;37.78;40.91;100615.78;5081246;28;20376;-67
2022/08/29 09:30:36;;;;;;;9.85;9.45;;;;;;;38.54;40.72;100614.47;5070575;28;20086;-66
2022/08/29 09:33:01;;;;;;;9.40;9.00;;;;;;;37.19;42.79;100622.84;5076000;28;20142;-66
2022/08/29 09:35:41;;;;;;;9.75;9.35;;;;;;;34.98;49.45;100625.72;5078632;28;20032;-65
2022/08/29 09:38:19;;;;;;;10.10;9.70;;;;;;;35.54;48.36;100618.72;5072673;28;20020;-66
2022/08/29 09:40:44;;;;;;;9.95;9.55;;;;;;;37.00;45.24;100619.94;5069942;28;20046;-65
2022/08/29 09:43:20;;;;;;;9.80;9.40;;;;;;;37.24;45.36;100614.31;5066235;28;20265;-65
2022/08/29 09:46:04;;;;;;;9.88;9.48;;;;;;;37.80;43.34;100611.50;5073915;28;20029;-64
2022/08/29 09:48:30;;;;;;;9.65;9.25;;;;;;;36.84;44.10;100606.00;5075949;28;20036;-64
2022/08/29 09:51:28;;;;;;;10.02;9.63;;;;;;;37.64;41.25;100609.88;5051952;28;20075;-66
2022/08/29 09:54:26;;;;;;;9.70;9.30;;;;;;;37.66;40.12;100596.47;5066467;28;20048;-65
2022/08/29 09:57:01;;;;;;;9.60;9.20;;;;;;;36.57;42.72;100590.97;5070644;28;20391;-64
2022/08/29 09:59:39;;;;;;;9.80;9.40;;;;;;;36.49;43.41;100595.47;5064169;28;20032;-66
2022/08/29 10:02:19;;;;;;;9.70;9.30;;;;;;;35.83;44.40;100583.81;5069057;28;20364;-65
2022/08/29 10:04:52;;;;;;;9.80;9.40;;;;;;;35.87;44.06;100587.53;5068426;28;20427;-65
2022/08/29 10:07:24;;;;;;;9.82;9.43;;;;;;;35.17;44.49;100591.00;5075259;28;20444;-64
2022/08/29 10:10:14;;;;;;;9.60;9.20;;;;;;;35.54;43.91;100588.38;5069446;28;20071;-64
2022/08/29 10:13:14;;;;;;;9.48;9.07;;;;;;;35.82;44.14;100588.53;5057596;28;20336;-65
2022/08/29 10:15:48;;;;;;;9.68;9.27;;;;;;;34.26;44.68;100586.28;5057753;28;20653;-67
2022/08/29 10:18:26;;;;;;;9.80;9.40;;;;;;;34.35;46.18;100587.84;5078370;28;20488;-66
2022/08/29 10:21:06;;;;;;;9.70;9.30;;;;;;;34.45;46.04;100585.84;5077295;28;20031;-67
2022/08/29 10:24:02;;;;;;;9.50;9.10;;;;;;;34.93;44.23;100585.38;5068470;28;20044;-68
2022/08/29 10:26:49;;;;;;;9.20;8.80;;;;;;;34.98;44.22;100589.88;5066805;28;20391;-68
2022/08/29 10:29:44;;;;;;;9.30;8.90;;;;;;;34.70;43.23;100578.56;5068953;28;20154;-71
2022/08/29 10:32:48;;;;;;;9.60;9.20;;;;;;;34.27;45.32;100580.44;5053533;28;20081;-67
2022/08/29 10:35:23;;;;;;;9.80;9.40;;;;;;;33.60;46.81;100572.94;5030094;28;20094;-68
2022/08/29 10:38:01;;;;;;;9.68;9.27;;;;;;;34.40;46.40;100578.56;5048702;28;20047;-68
2022/08/29 10:40:41;;;;;;;9.95;9.55;;;;;;;34.22;46.12;100572.34;5069961;28;20035;-67
2022/08/29 10:43:22;;;;;;;9.35;8.95;;;;;;;34.33;46.40;100579.09;5074888;28;20575;-67
2022/08/29 10:46:00;;;;;;;9.60;9.20;;;;;;;34.44;45.91;100565.75;5064941;28;20089;-68
2022/08/29 10:48:35;;;;;;;9.80;9.40;;;;;;;34.38;45.98;100569.84;5082150;28;20041;-67
2022/08/29 10:51:20;;;;;;;9.73;9.32;;;;;;;34.65;45.52;100568.53;5068151;28;20450;-69
2022/08/29 10:54:09;;;;;;;9.75;9.35;;;;;;;34.68;44.46;100565.13;5060785;28;20484;-66
2022/08/29 10:56:43;;;;;;;9.60;9.20;;;;;;;34.40;45.11;100559.28;5073805;28;20123;-67
2022/08/29 10:59:41;;;;;;;9.50;9.10;;;;;;;34.48;44.63;100563.97;5053413;28;20023;-68
2022/08/29 11:02:31;;;;;;;9.90;9.50;;;;;;;34.83;44.09;100566.47;5078249;28;20502;-68
2022/08/29 11:05:03;;;;;;;9.55;9.15;;;;;;;34.77;42.89;100554.03;5073711;28;20024;-67
2022/08/29 11:07:36;;;;;;;9.60;9.20;;;;;;;34.39;43.98;100551.38;5067638;28;20027;-68
2022/08/29 11:10:12;;;;;;;9.63;9.23;;;;;;;34.61;42.86;100549.13;5070793;28;20028;-68
2022/08/29 11:12:45;;;;;;;9.68;9.27;;;;;;;34.53;43.77;100536.22;5074911;28;20548;-67
2022/08/29 11:15:25;;;;;;;9.52;9.13;;;;;;;34.58;44.20;100548.97;5070847;28;20035;-69
2022/08/29 11:18:00;;;;;;;9.70;9.30;;;;;;;33.77;46.01;100544.53;5064277;28;20029;-69
2022/08/29 11:20:31;;;;;;;9.40;9.00;;;;;;;34.84;44.76;100544.06;5077972;28;20456;-67
2022/08/29 11:23:04;;;;;;;9.35;8.95;;;;;;;34.43;45.05;100539.38;5084106;28;20376;-67
2022/08/29 11:25:31;;;;;;;9.50;9.10;;;;;;;33.11;47.68;100542.09;5079845;28;20472;-68
2022/08/29 11:28:40;;;;;;;9.30;8.90;;;;;;;34.76;45.05;100536.69;5072252;28;20037;-68
2022/08/29 11:31:06;;;;;;;9.32;8.93;;;;;;;34.82;43.29;100535.34;5073804;28;20048;-67
2022/08/29 11:33:45;;;;;;;9.32;8.93;;;;;;;34.44;43.25;100529.16;5067150;28;20096;-71